Time;durP1;ratioP1;P1;durP2;ratioP2;P2;SDS_P1;SDS_P2;PMS_P1;PMS_P2;Temp;Humidity;BMP_temperature;BMP_pressure;BME280_temperature;BME280_humidity;BME280_pressure;Samples;Min_cycle;Max_cycle;Signal;HPM_P1;HPM_P2
2021/03/25 00:00:17;;;;;;;29.30;13.10;;;2.90;99.90;;;;;;5032222;28;20418;-73
2021/03/25 00:02:42;;;;;;;21.38;11.90;;;2.90;99.90;;;;;;5032033;28;20025;-73
2021/03/25 00:05:12;;;;;;;22.98;11.43;;;2.90;99.90;;;;;;5032168;28;20071;-73
2021/03/25 00:07:39;;;;;;;22.92;12.45;;;2.80;99.90;;;;;;5035042;28;20052;-72
2021/03/25 00:10:10;;;;;;;22.30;11.93;;;2.80;99.90;;;;;;5036367;28;20071;-72
2021/03/25 00:12:37;;;;;;;22.00;11.55;;;2.90;99.90;;;;;;5032344;28;20475;-72
2021/03/25 00:15:05;;;;;;;20.85;11.75;;;2.80;99.90;;;;;;5031948;28;20071;-72
2021/03/25 00:17:31;;;;;;;22.65;11.43;;;2.70;99.90;;;;;;5031889;28;20033;-72
2021/03/25 00:19:56;;;;;;;25.70;13.50;;;2.70;99.90;;;;;;5031988;28;20030;-72
2021/03/25 00:22:22;;;;;;;32.95;15.13;;;2.60;99.90;;;;;;5014316;28;20029;-73
2021/03/25 00:24:48;;;;;;;38.17;16.67;;;2.60;99.90;;;;;;5029853;28;20468;-72
2021/03/25 00:27:13;;;;;;;33.60;15.77;;;2.60;99.90;;;;;;5031861;28;20079;-73
2021/03/25 00:29:39;;;;;;;22.52;12.00;;;2.50;99.90;;;;;;5031656;28;20104;-74
2021/03/25 00:32:05;;;;;;;29.13;12.90;;;2.60;99.90;;;;;;5031627;28;20467;-72
2021/03/25 00:34:31;;;;;;;26.73;13.48;;;2.50;99.90;;;;;;5030713;28;20052;-73
2021/03/25 00:36:57;;;;;;;27.83;13.55;;;2.50;99.90;;;;;;5031602;28;20013;-73
2021/03/25 00:39:22;;;;;;;30.95;14.00;;;2.50;99.90;;;;;;5031741;28;20084;-73
2021/03/25 00:41:48;;;;;;;28.65;13.18;;;2.60;99.90;;;;;;5032967;28;20037;-71
2021/03/25 00:44:14;;;;;;;26.25;13.63;;;2.50;99.90;;;;;;5031467;28;20538;-72
2021/03/25 00:46:41;;;;;;;26.33;12.77;;;2.50;99.90;;;;;;5031658;28;20044;-71
2021/03/25 00:49:07;;;;;;;21.58;11.63;;;2.40;99.90;;;;;;5030388;28;20026;-73
2021/03/25 00:51:33;;;;;;;25.38;13.45;;;2.50;99.90;;;;;;5031819;28;20454;-72
2021/03/25 00:53:58;;;;;;;22.90;12.48;;;2.40;99.90;;;;;;5030772;28;20025;-74
2021/03/25 00:56:24;;;;;;;22.98;11.88;;;2.40;99.90;;;;;;5031414;28;20025;-74
2021/03/25 00:58:50;;;;;;;32.15;12.88;;;2.40;99.90;;;;;;5031554;28;20534;-75
2021/03/25 01:01:16;;;;;;;27.52;13.00;;;2.30;99.90;;;;;;5031515;28;20388;-75
2021/03/25 01:03:42;;;;;;;22.98;12.20;;;2.30;99.90;;;;;;5030939;28;20028;-73
2021/03/25 01:06:08;;;;;;;26.45;12.38;;;2.30;99.90;;;;;;5031389;28;20026;-74
2021/03/25 01:08:34;;;;;;;23.60;13.30;;;2.30;99.90;;;;;;5031285;28;20037;-74
2021/03/25 01:11:23;;;;;;;20.63;11.82;;;2.20;99.90;;;;;;5031167;28;20087;-73
2021/03/25 01:13:48;;;;;;;24.73;11.80;;;2.20;99.90;;;;;;5030576;28;20539;-73
2021/03/25 01:16:18;;;;;;;21.10;12.93;;;2.10;99.90;;;;;;5031465;28;20160;-75
2021/03/25 01:18:44;;;;;;;22.88;12.40;;;2.10;99.90;;;;;;5030513;28;20117;-73
2021/03/25 01:21:09;;;;;;;21.50;11.13;;;2.00;99.90;;;;;;5031695;28;20105;-75
2021/03/25 01:23:36;;;;;;;20.30;11.90;;;2.10;99.90;;;;;;5034910;28;20026;-74
2021/03/25 01:26:01;;;;;;;26.08;11.43;;;1.90;99.90;;;;;;5035923;28;20033;-75
2021/03/25 01:28:27;;;;;;;20.23;12.48;;;1.90;99.90;;;;;;5035117;28;20034;-74
2021/03/25 01:30:53;;;;;;;23.02;12.35;;;1.80;99.90;;;;;;5035166;28;20025;-73
2021/03/25 01:33:22;;;;;;;24.08;12.15;;;1.90;99.90;;;;;;5034375;28;20104;-73
2021/03/25 01:35:49;;;;;;;22.13;12.52;;;1.90;99.90;;;;;;5035101;28;20032;-75
2021/03/25 01:38:17;;;;;;;25.73;12.43;;;1.90;99.90;;;;;;5034830;28;20038;-74
2021/03/25 01:40:48;;;;;;;23.77;13.45;;;1.90;99.90;;;;;;5034855;28;20468;-75
2021/03/25 01:43:31;;;;;;;27.85;13.45;;;1.80;99.90;;;;;;5034175;28;20025;-72
2021/03/25 01:46:01;;;;;;;25.27;12.13;;;1.80;99.90;;;;;;5017500;28;20446;-74
2021/03/25 01:48:33;;;;;;;25.23;12.52;;;1.80;99.90;;;;;;5034944;28;20024;-74
2021/03/25 01:51:22;;;;;;;26.83;12.63;;;1.80;99.90;;;;;;5034522;28;20026;-74
2021/03/25 01:53:57;;;;;;;23.70;12.70;;;1.70;99.90;;;;;;5033206;28;20492;-73
2021/03/25 01:56:25;;;;;;;24.33;13.88;;;1.70;99.90;;;;;;5034716;28;20045;-73
2021/03/25 01:59:20;;;;;;;26.48;14.57;;;1.70;99.90;;;;;;5034715;28;20026;-74
2021/03/25 02:02:07;;;;;;;28.45;14.70;;;1.70;99.90;;;;;;5034771;28;20062;-73
2021/03/25 02:05:00;;;;;;;27.38;14.52;;;1.60;99.90;;;;;;5033669;28;20029;-71
2021/03/25 02:07:47;;;;;;;29.60;13.93;;;1.60;99.90;;;;;;5016814;28;20036;-73
2021/03/25 02:10:22;;;;;;;31.40;14.15;;;1.60;99.90;;;;;;5033984;28;20091;-74
2021/03/25 02:12:51;;;;;;;26.30;13.85;;;1.50;99.90;;;;;;5033743;28;20383;-73
2021/03/25 02:15:54;;;;;;;25.50;14.68;;;1.50;99.90;;;;;;5034143;28;20022;-72
2021/03/25 02:18:26;;;;;;;25.38;14.32;;;1.50;99.90;;;;;;5033831;28;20037;-73
2021/03/25 02:21:15;;;;;;;22.17;13.10;;;1.50;99.90;;;;;;5034282;28;20045;-73
2021/03/25 02:23:43;;;;;;;22.75;13.32;;;1.50;99.90;;;;;;5033529;28;20056;-73
2021/03/25 02:26:20;;;;;;;23.42;13.85;;;1.50;99.90;;;;;;5018538;28;20061;-74
2021/03/25 02:29:18;;;;;;;23.52;12.77;;;1.50;99.90;;;;;;5035779;28;20029;-74
2021/03/25 02:31:51;;;;;;;19.92;12.68;;;1.40;99.90;;;;;;5035155;28;20025;-75
2021/03/25 02:34:22;;;;;;;23.35;14.85;;;1.40;99.90;;;;;;5033568;28;20026;-72
2021/03/25 02:37:06;;;;;;;28.63;14.73;;;1.50;99.90;;;;;;5034306;28;20024;-74
2021/03/25 02:40:01;;;;;;;24.98;14.75;;;1.50;99.90;;;;;;5016291;28;20029;-73
2021/03/25 02:42:39;;;;;;;27.75;15.40;;;1.40;99.90;;;;;;5016912;28;20068;-73
2021/03/25 02:45:15;;;;;;;26.73;13.52;;;1.40;99.90;;;;;;5033987;28;20021;-73
2021/03/25 02:47:43;;;;;;;24.40;13.82;;;1.30;99.90;;;;;;5035228;28;20542;-74
2021/03/25 02:50:34;;;;;;;21.63;13.43;;;1.40;99.90;;;;;;5038749;28;20055;-73
2021/03/25 02:53:15;;;;;;;28.52;14.20;;;1.40;99.90;;;;;;5033081;28;20018;-73
2021/03/25 02:55:41;;;;;;;28.48;15.43;;;1.30;99.90;;;;;;5033771;28;20071;-73
2021/03/25 02:58:28;;;;;;;24.48;14.48;;;1.30;99.90;;;;;;5033337;28;20021;-73
2021/03/25 03:01:16;;;;;;;24.60;14.40;;;1.30;99.90;;;;;;5033330;28;20108;-73
2021/03/25 03:03:46;;;;;;;32.10;14.95;;;1.20;99.90;;;;;;5032870;28;20025;-74
2021/03/25 03:06:24;;;;;;;25.55;15.27;;;1.10;99.90;;;;;;5015484;28;20040;-72
2021/03/25 03:08:52;;;;;;;29.33;15.13;;;1.10;99.90;;;;;;5033308;28;20563;-74
2021/03/25 03:11:23;;;;;;;27.33;14.85;;;1.00;99.90;;;;;;5033112;28;20391;-73
2021/03/25 03:14:00;;;;;;;24.85;14.20;;;1.10;99.90;;;;;;5032595;28;20025;-73
2021/03/25 03:16:39;;;;;;;23.23;14.10;;;1.00;99.90;;;;;;5033228;28;20452;-73
2021/03/25 03:19:13;;;;;;;23.77;13.48;;;1.00;99.90;;;;;;5032771;28;20045;-73
2021/03/25 03:21:50;;;;;;;30.50;15.13;;;1.10;99.90;;;;;;5033461;28;20033;-75
2021/03/25 03:24:18;;;;;;;26.20;15.05;;;1.20;99.90;;;;;;5034908;28;20029;-73
2021/03/25 03:26:51;;;;;;;25.50;14.32;;;1.20;99.90;;;;;;5035866;28;20112;-73
2021/03/25 03:29:19;;;;;;;24.55;14.75;;;1.20;99.90;;;;;;5032938;28;20160;-73
2021/03/25 03:31:52;;;;;;;24.83;14.13;;;1.10;99.90;;;;;;5033689;28;20021;-73
2021/03/25 03:34:37;;;;;;;25.35;14.60;;;1.10;99.90;;;;;;5034268;28;20480;-74
2021/03/25 03:37:14;;;;;;;25.92;14.80;;;1.20;99.90;;;;;;5035732;28;20483;-74
2021/03/25 03:39:41;;;;;;;25.17;14.15;;;1.10;99.90;;;;;;5033682;28;20022;-74
2021/03/25 03:42:17;;;;;;;22.73;13.70;;;1.10;99.90;;;;;;5032699;28;20052;-73
2021/03/25 03:44:53;;;;;;;24.08;14.10;;;1.10;99.90;;;;;;5031637;28;20029;-73
2021/03/25 03:47:22;;;;;;;27.80;14.20;;;0.90;99.90;;;;;;5032552;28;20122;-73
2021/03/25 03:50:01;;;;;;;25.83;13.70;;;1.00;99.90;;;;;;5014687;28;20061;-73
2021/03/25 03:52:33;;;;;;;23.02;12.98;;;0.90;99.90;;;;;;5032495;28;20026;-73
2021/03/25 03:55:00;;;;;;;24.05;13.20;;;0.90;99.90;;;;;;5031211;28;20035;-73
2021/03/25 03:58:23;;;;;;;25.20;14.02;;;0.80;99.90;;;;;;5032363;28;20030;-74
2021/03/25 04:01:01;;;;;;;24.73;14.68;;;0.90;99.90;;;;;;4917026;29;20038;-73
2021/03/25 04:03:30;;;;;;;19.83;12.52;;;0.90;99.90;;;;;;5031648;28;20091;-73
2021/03/25 04:06:02;;;;;;;27.23;14.10;;;0.90;99.90;;;;;;5032121;28;20136;-72
2021/03/25 04:08:37;;;;;;;25.38;13.82;;;1.00;99.90;;;;;;5032073;28;20026;-75
2021/03/25 04:11:06;;;;;;;24.60;13.88;;;0.90;99.90;;;;;;5032178;28;20048;-73
2021/03/25 04:13:38;;;;;;;23.30;13.00;;;0.90;99.90;;;;;;5031210;28;20021;-74
2021/03/25 04:16:04;;;;;;;;;;;0.90;99.90;;;;;;5032331;28;20529;-71
2021/03/25 04:18:50;;;;;;;25.15;12.45;;;0.80;99.90;;;;;;5032127;28;19916;-73
2021/03/25 04:21:30;;;;;;;23.65;13.73;;;0.80;99.90;;;;;;5013781;28;20450;-73
2021/03/25 04:24:00;;;;;;;21.00;12.90;;;0.80;99.90;;;;;;5012629;28;20053;-71
2021/03/25 04:26:38;;;;;;;22.30;13.13;;;0.80;99.90;;;;;;5012361;28;20428;-73
2021/03/25 04:29:13;;;;;;;30.90;14.75;;;0.90;99.90;;;;;;5012235;28;20476;-72
2021/03/25 04:31:39;;;;;;;21.80;13.82;;;0.80;99.90;;;;;;5012047;28;20025;-72
2021/03/25 04:34:05;;;;;;;28.08;14.60;;;0.70;99.90;;;;;;5011501;28;20439;-72
2021/03/25 04:36:35;;;;;;;23.75;13.70;;;0.80;99.90;;;;;;5012214;28;20152;-73
2021/03/25 04:39:04;;;;;;;21.42;13.90;;;0.70;99.90;;;;;;5011982;28;20040;-73
2021/03/25 04:41:32;;;;;;;24.52;14.10;;;0.80;99.90;;;;;;5012360;28;20029;-74
2021/03/25 04:44:07;;;;;;;26.80;15.45;;;0.80;99.90;;;;;;5011819;28;20527;-74
2021/03/25 04:46:35;;;;;;;32.50;15.93;;;0.70;99.90;;;;;;5013174;28;20621;-74
2021/03/25 04:49:05;;;;;;;30.58;17.38;;;0.70;99.90;;;;;;5017006;28;20026;-73
2021/03/25 04:51:31;;;;;;;31.52;15.68;;;0.70;99.90;;;;;;5035405;28;20068;-73
2021/03/25 04:54:31;;;;;;;33.65;16.45;;;0.70;99.90;;;;;;5045511;28;20030;-73
2021/03/25 04:57:04;;;;;;;27.40;16.13;;;0.70;99.90;;;;;;5047256;28;20026;-72
2021/03/25 04:59:30;;;;;;;26.35;14.95;;;0.70;99.90;;;;;;5047110;28;20029;-71
2021/03/25 05:01:56;;;;;;;31.80;16.50;;;0.70;99.90;;;;;;5047009;28;20048;-72
2021/03/25 05:04:21;;;;;;;28.50;16.58;;;0.70;99.90;;;;;;5021138;28;20036;-75
2021/03/25 05:06:57;;;;;;;30.10;15.43;;;0.80;99.90;;;;;;5033509;28;20030;-72
2021/03/25 05:09:24;;;;;;;24.88;14.60;;;0.70;99.90;;;;;;5015003;28;20571;-75
2021/03/25 05:11:51;;;;;;;30.02;15.23;;;0.60;99.90;;;;;;5033130;28;20024;-73
2021/03/25 05:14:23;;;;;;;24.90;14.20;;;0.60;99.90;;;;;;5032317;28;20026;-73
2021/03/25 05:17:01;;;;;;;26.90;15.23;;;0.60;99.90;;;;;;5034371;28;20021;-73
2021/03/25 05:19:38;;;;;;;27.77;15.75;;;0.70;99.90;;;;;;5034273;28;20056;-74
2021/03/25 05:22:18;;;;;;;25.75;15.15;;;0.70;99.90;;;;;;5034587;28;20040;-73
2021/03/25 05:24:59;;;;;;;24.55;15.05;;;0.60;99.90;;;;;;5038810;28;20030;-72
2021/03/25 05:27:45;;;;;;;29.80;14.73;;;0.70;99.90;;;;;;5052669;28;20026;-72
2021/03/25 05:30:21;;;;;;;24.80;14.13;;;0.60;99.90;;;;;;5044756;28;20081;-73
2021/03/25 05:32:50;;;;;;;26.42;14.88;;;0.60;99.90;;;;;;5036355;28;20026;-74
2021/03/25 05:35:19;;;;;;;21.95;14.15;;;0.60;99.90;;;;;;5014247;28;20021;-75
2021/03/25 05:37:46;;;;;;;24.13;14.05;;;0.60;99.90;;;;;;5021083;28;20045;-75
2021/03/25 05:40:35;;;;;;;24.80;14.65;;;0.60;99.90;;;;;;5009720;28;20021;-74
2021/03/25 05:43:32;;;;;;;27.90;14.93;;;0.70;99.90;;;;;;5008808;28;20130;-76
2021/03/25 05:46:06;;;;;;;24.00;14.07;;;0.70;99.90;;;;;;4989230;28;20034;-74
2021/03/25 05:48:51;;;;;;;24.48;14.23;;;0.70;99.90;;;;;;5011291;28;20037;-74
2021/03/25 05:51:32;;;;;;;25.25;13.77;;;0.90;99.90;;;;;;5000029;28;20033;-74
2021/03/25 05:54:22;;;;;;;28.63;14.25;;;0.80;99.90;;;;;;5002812;28;20104;-75
2021/03/25 05:56:59;;;;;;;21.70;13.02;;;0.90;99.90;;;;;;5025951;28;20113;-74
2021/03/25 05:59:31;;;;;;;23.23;13.02;;;1.00;99.90;;;;;;5021693;28;20022;-74
2021/03/25 06:02:20;;;;;;;20.85;12.50;;;1.00;99.90;;;;;;5023912;28;20029;-74
2021/03/25 06:04:52;;;;;;;25.75;13.77;;;1.00;99.90;;;;;;5028557;28;20052;-73
2021/03/25 06:07:40;;;;;;;26.58;13.70;;;1.20;99.90;;;;;;5028557;28;20056;-75
2021/03/25 06:10:15;;;;;;;21.40;13.63;;;1.20;99.90;;;;;;5030725;28;20026;-74
2021/03/25 06:13:18;;;;;;;21.40;13.48;;;1.40;99.90;;;;;;5030862;28;20442;-74
2021/03/25 06:16:09;;;;;;;20.13;12.93;;;1.40;99.90;;;;;;5036216;28;20097;-76
2021/03/25 06:19:06;;;;;;;19.77;12.57;;;1.50;99.90;;;;;;5037755;28;20026;-74
2021/03/25 06:22:03;;;;;;;21.95;13.50;;;1.70;99.90;;;;;;5035463;28;20025;-75
2021/03/25 06:24:57;;;;;;;21.15;13.43;;;1.60;99.90;;;;;;5031112;28;20557;-74
2021/03/25 06:27:38;;;;;;;26.27;14.73;;;2.10;99.90;;;;;;5046283;28;20040;-74
2021/03/25 06:30:10;;;;;;;21.45;12.63;;;2.50;99.90;;;;;;5051084;28;20025;-74
2021/03/25 06:32:59;;;;;;;19.67;11.43;;;2.40;99.90;;;;;;5052489;28;20029;-73
2021/03/25 06:35:43;;;;;;;19.27;10.65;;;2.30;99.90;;;;;;5066834;28;20051;-74
2021/03/25 06:38:17;;;;;;;18.20;11.32;;;2.20;99.90;;;;;;5065958;28;20025;-74
2021/03/25 06:41:07;;;;;;;19.40;11.73;;;2.10;99.90;;;;;;5063966;28;20035;-75
2021/03/25 06:44:03;;;;;;;32.45;11.43;;;2.20;99.90;;;;;;5064704;28;20029;-70
2021/03/25 06:46:41;;;;;;;19.70;10.88;;;2.20;99.90;;;;;;5046746;28;20037;-71
2021/03/25 06:49:45;;;;;;;24.73;11.85;;;2.30;99.90;;;;;;5042011;28;20030;-74
2021/03/25 06:52:23;;;;;;;20.75;12.40;;;2.40;99.90;;;;;;5020196;28;20091;-71
2021/03/25 06:54:56;;;;;;;22.20;11.50;;;2.50;99.90;;;;;;5029400;28;20040;-71
2021/03/25 06:57:23;;;;;;;24.10;11.05;;;2.60;99.90;;;;;;5010837;28;20049;-71
2021/03/25 06:59:55;;;;;;;46.80;11.80;;;2.60;99.90;;;;;;5022318;28;20026;-71
2021/03/25 07:02:43;;;;;;;21.02;9.98;;;2.70;99.90;;;;;;5008083;28;20025;-73
2021/03/25 07:05:12;;;;;;;23.67;10.27;;;3.00;99.90;;;;;;5007035;28;20685;-74
2021/03/25 07:07:41;;;;;;;28.58;11.15;;;3.00;99.90;;;;;;5040566;28;20079;-72
2021/03/25 07:10:09;;;;;;;22.45;11.15;;;3.10;99.90;;;;;;4997974;28;20026;-71
2021/03/25 07:12:42;;;;;;;20.38;10.70;;;3.10;99.90;;;;;;5039231;28;20026;-73
2021/03/25 07:15:23;;;;;;;19.48;10.63;;;3.10;99.90;;;;;;5019616;28;20076;-73
2021/03/25 07:17:51;;;;;;;17.92;10.85;;;3.20;99.90;;;;;;5029948;28;20026;-74
2021/03/25 07:20:22;;;;;;;21.83;10.88;;;3.30;99.90;;;;;;5036224;28;20468;-71
2021/03/25 07:23:09;;;;;;;18.20;10.35;;;3.30;99.90;;;;;;5032577;28;20455;-72
2021/03/25 07:25:44;;;;;;;16.50;10.05;;;3.40;99.90;;;;;;5025325;28;20408;-72
2021/03/25 07:28:19;;;;;;;18.27;10.35;;;3.50;99.90;;;;;;5027901;28;20028;-73
2021/03/25 07:31:01;;;;;;;16.27;9.73;;;3.60;99.90;;;;;;5038275;28;20426;-73
2021/03/25 07:33:39;;;;;;;17.60;9.77;;;3.90;99.90;;;;;;5056148;28;20024;-72
2021/03/25 07:36:11;;;;;;;16.88;9.60;;;4.10;99.90;;;;;;5056266;28;20029;-71
2021/03/25 07:38:39;;;;;;;18.25;9.85;;;4.20;99.90;;;;;;5032223;28;20503;-72
2021/03/25 07:41:07;;;;;;;16.92;9.70;;;4.40;99.90;;;;;;5014739;28;20025;-71
2021/03/25 07:43:56;;;;;;;15.65;9.98;;;4.50;99.90;;;;;;5032329;28;20025;-71
2021/03/25 07:46:58;;;;;;;16.95;9.75;;;4.70;99.90;;;;;;5032496;28;20025;-71
2021/03/25 07:49:38;;;;;;;16.63;10.07;;;4.90;99.90;;;;;;4988769;28;20033;-73
2021/03/25 07:52:27;;;;;;;17.70;9.20;;;5.00;99.90;;;;;;5014772;28;20039;-72
2021/03/25 07:54:52;;;;;;;17.38;9.52;;;5.20;99.90;;;;;;5033853;28;20018;-73
2021/03/25 07:57:23;;;;;;;23.75;9.50;;;5.40;99.90;;;;;;5041640;28;20542;-71
2021/03/25 07:59:53;;;;;;;13.43;9.55;;;5.60;99.90;;;;;;5016886;28;20048;-71
2021/03/25 08:02:36;;;;;;;16.40;9.57;;;5.80;99.90;;;;;;5032835;28;20527;-71
2021/03/25 08:05:29;;;;;;;12.35;9.00;;;5.90;99.90;;;;;;5032000;28;20041;-71
2021/03/25 08:07:59;;;;;;;16.70;9.20;;;6.20;99.90;;;;;;5035045;28;20053;-72
2021/03/25 08:10:42;;;;;;;14.60;9.07;;;6.30;99.90;;;;;;5015332;28;20431;-71
2021/03/25 08:13:25;;;;;;;14.45;9.15;;;6.80;99.90;;;;;;5033367;28;20037;-71
2021/03/25 08:15:52;;;;;;;12.90;8.50;;;7.20;99.90;;;;;;5032672;28;20080;-72
2021/03/25 08:18:34;;;;;;;11.82;7.85;;;7.60;99.90;;;;;;5033406;28;20021;-71
2021/03/25 08:21:17;;;;;;;10.32;7.75;;;8.30;99.90;;;;;;5033114;28;20027;-71
2021/03/25 08:23:54;;;;;;;12.77;7.72;;;8.50;99.90;;;;;;5014227;28;20021;-73
2021/03/25 08:26:45;;;;;;;11.40;7.78;;;8.60;99.90;;;;;;5014288;28;20120;-72
2021/03/25 08:29:27;;;;;;;15.40;7.75;;;8.60;99.90;;;;;;5031569;28;20028;-72
2021/03/25 08:32:11;;;;;;;10.38;7.22;;;9.10;99.90;;;;;;5043488;28;20108;-71
2021/03/25 08:35:07;;;;;;;10.18;7.35;;;9.50;99.90;;;;;;5051322;28;20395;-71
2021/03/25 08:37:47;;;;;;;12.30;7.45;;;9.60;99.90;;;;;;5052543;28;20017;-73
2021/03/25 08:40:22;;;;;;;14.60;9.02;;;9.50;99.90;;;;;;5039188;28;20021;-71
2021/03/25 08:43:00;;;;;;;14.68;7.80;;;9.80;99.90;;;;;;5013160;28;20021;-72
2021/03/25 08:45:44;;;;;;;12.82;8.18;;;10.60;99.90;;;;;;5031598;28;20013;-71
2021/03/25 08:48:36;;;;;;;9.63;6.45;;;11.40;99.90;;;;;;5031711;28;20033;-72
2021/03/25 08:51:13;;;;;;;10.90;7.15;;;12.80;99.90;;;;;;5031122;28;20022;-72
2021/03/25 08:53:59;;;;;;;15.25;7.45;;;13.10;99.90;;;;;;5030731;28;20240;-71
2021/03/25 08:56:39;;;;;;;9.98;6.90;;;12.70;99.90;;;;;;5031601;28;20100;-72
2021/03/25 08:59:18;;;;;;;12.07;6.90;;;12.80;99.90;;;;;;5031687;28;20025;-72
2021/03/25 09:01:48;;;;;;;11.73;6.72;;;13.30;99.90;;;;;;5031398;28;20496;-72
2021/03/25 09:04:17;;;;;;;12.73;6.43;;;14.30;98.60;;;;;;5031217;28;20021;-71
2021/03/25 09:06:47;;;;;;;19.08;7.57;;;13.80;96.40;;;;;;5031338;28;20025;-70
2021/03/25 09:09:27;;;;;;;7.88;6.63;;;13.60;97.60;;;;;;5031525;28;20030;-71
2021/03/25 09:11:53;;;;;;;11.48;7.22;;;13.40;96.80;;;;;;5031441;28;20021;-72
2021/03/25 09:14:22;;;;;;;12.35;7.43;;;13.40;98.20;;;;;;5030911;28;20028;-71
2021/03/25 09:16:48;;;;;;;12.57;6.88;;;14.80;96.20;;;;;;5031506;28;20017;-72
2021/03/25 09:19:21;;;;;;;8.63;6.15;;;14.70;94.30;;;;;;5031427;28;20026;-71
2021/03/25 09:21:48;;;;;;;12.70;7.03;;;15.20;94.50;;;;;;5032988;28;20109;-73
2021/03/25 09:24:15;;;;;;;10.52;6.82;;;16.40;92.70;;;;;;5031229;28;20022;-71
2021/03/25 09:26:50;;;;;;;9.60;6.47;;;16.20;90.20;;;;;;5031501;28;20159;-71
2021/03/25 09:29:18;;;;;;;10.93;6.45;;;15.90;91.10;;;;;;5031493;28;20032;-72
2021/03/25 09:31:56;;;;;;;13.48;7.10;;;16.30;91.00;;;;;;5042610;28;20025;-72
2021/03/25 09:34:24;;;;;;;8.75;6.63;;;16.30;89.00;;;;;;5051203;28;20029;-72
2021/03/25 09:37:14;;;;;;;10.32;6.28;;;15.90;90.70;;;;;;5054491;28;20086;-71
2021/03/25 09:39:41;;;;;;;9.00;6.63;;;15.30;90.30;;;;;;5053925;28;20013;-71
2021/03/25 09:42:16;;;;;;;7.65;5.53;;;16.40;91.00;;;;;;5038182;28;20471;-71
2021/03/25 09:44:43;;;;;;;12.00;6.65;;;17.90;86.80;;;;;;5037424;28;20033;-70
2021/03/25 09:47:25;;;;;;;8.15;6.10;;;18.70;80.00;;;;;;5035551;28;20491;-71
2021/03/25 09:50:03;;;;;;;9.45;6.13;;;18.40;79.40;;;;;;5035183;28;20472;-70
2021/03/25 09:52:50;;;;;;;8.00;5.97;;;18.00;78.10;;;;;;5034187;28;20033;-70
2021/03/25 09:55:19;;;;;;;9.60;6.28;;;17.20;79.60;;;;;;5034460;28;20361;-72
2021/03/25 09:57:47;;;;;;;9.52;6.07;;;17.10;79.70;;;;;;5031052;28;20036;-72
2021/03/25 10:00:21;;;;;;;9.85;6.70;;;17.30;78.80;;;;;;5036196;28;20025;-74
2021/03/25 10:02:53;;;;;;;5.63;4.63;;;18.10;80.60;;;;;;5041079;28;20491;-75
2021/03/25 10:05:35;;;;;;;7.63;4.93;;;18.70;83.40;;;;;;5055630;28;20025;-76
2021/03/25 10:08:30;;;;;;;9.55;5.07;;;18.80;78.10;;;;;;5045643;28;20170;-75
2021/03/25 10:11:51;;;;;;;5.38;4.68;;;19.50;70.90;;;;;;5010049;28;20041;-75
2021/03/25 10:15:02;;;;;;;8.32;5.90;;;19.80;72.00;;;;;;5035498;28;20029;-73
2021/03/25 10:17:51;;;;;;;9.75;5.97;;;20.70;67.40;;;;;;5044020;28;20029;-73
2021/03/25 10:21:05;;;;;;;7.85;6.47;;;19.10;67.30;;;;;;5047534;28;20090;-72
2021/03/25 10:24:08;;;;;;;10.98;6.38;;;20.00;72.50;;;;;;5046970;28;20088;-73
2021/03/25 10:26:58;;;;;;;6.65;5.18;;;20.60;62.30;;;;;;4995791;28;20034;-73
2021/03/25 10:29:51;;;;;;;10.50;6.18;;;20.90;64.20;;;;;;5022325;28;20030;-72
2021/03/25 10:32:47;;;;;;;6.88;5.97;;;21.30;65.30;;;;;;5004805;28;20056;-74
2021/03/25 10:35:30;;;;;;;7.57;6.03;;;22.90;61.40;;;;;;5022907;28;20026;-73
2021/03/25 10:38:02;;;;;;;8.95;5.88;;;22.50;57.30;;;;;;5002288;28;20036;-71
2021/03/25 10:40:38;;;;;;;9.68;6.50;;;21.70;58.10;;;;;;5032377;28;20018;-73
2021/03/25 10:43:13;;;;;;;10.85;6.68;;;21.80;57.20;;;;;;5035997;28;20051;-72
2021/03/25 10:45:54;;;;;;;11.00;6.55;;;20.20;59.10;;;;;;5038630;28;20029;-71
2021/03/25 10:48:32;;;;;;;10.35;6.57;;;20.10;64.40;;;;;;5015376;28;20021;-70
2021/03/25 10:51:04;;;;;;;9.13;6.38;;;20.40;63.10;;;;;;5034116;28;20044;-72
2021/03/25 10:53:34;;;;;;;8.05;6.35;;;21.00;59.70;;;;;;5036884;28;20051;-71
2021/03/25 10:56:14;;;;;;;13.05;6.70;;;22.00;58.30;;;;;;5052231;28;20491;-71
2021/03/25 10:58:56;;;;;;;7.20;5.82;;;23.40;56.20;;;;;;5033493;28;20040;-71
2021/03/25 11:01:25;;;;;;;9.88;6.20;;;23.30;54.20;;;;;;5033522;28;20451;-71
2021/03/25 11:03:51;;;;;;;8.32;5.82;;;22.00;56.00;;;;;;5032331;28;20566;-70
2021/03/25 11:06:19;;;;;;;14.32;6.13;;;20.90;57.80;;;;;;5042788;28;20049;-71
2021/03/25 11:08:45;;;;;;;10.27;6.00;;;21.20;58.80;;;;;;5050785;28;20037;-71
2021/03/25 11:11:19;;;;;;;8.75;5.90;;;21.70;58.70;;;;;;5032974;28;20080;-70
2021/03/25 11:13:59;;;;;;;8.20;5.60;;;22.20;57.20;;;;;;5032048;28;20087;-71
2021/03/25 11:16:25;;;;;;;7.68;5.55;;;23.40;54.50;;;;;;5033154;28;20026;-71
2021/03/25 11:19:01;;;;;;;7.97;5.60;;;23.90;51.80;;;;;;5032319;28;20091;-70
2021/03/25 11:21:34;;;;;;;9.45;5.90;;;23.80;51.40;;;;;;5025777;28;20484;-71
2021/03/25 11:24:23;;;;;;;6.20;5.10;;;24.20;51.30;;;;;;5031359;28;20116;-71
2021/03/25 11:27:01;;;;;;;6.20;5.07;;;23.50;51.70;;;;;;5042672;28;20491;-71
2021/03/25 11:29:35;;;;;;;6.53;5.38;;;24.40;50.90;;;;;;5052455;28;20037;-70
2021/03/25 11:32:12;;;;;;;6.68;4.82;;;24.90;48.20;;;;;;5052271;28;20029;-71
2021/03/25 11:34:39;;;;;;;10.98;6.28;;;24.10;47.80;;;;;;5051972;28;20032;-71
2021/03/25 11:37:36;;;;;;;8.57;4.72;;;23.70;50.00;;;;;;5055022;28;20025;-72
2021/03/25 11:40:42;;;;;;;8.25;4.97;;;24.50;50.50;;;;;;5032920;28;20064;-73
2021/03/25 11:43:12;;;;;;;8.15;4.80;;;22.80;51.60;;;;;;5009574;28;20042;-72
2021/03/25 11:45:41;;;;;;;6.15;4.78;;;23.80;51.30;;;;;;5032593;28;20033;-73
2021/03/25 11:48:19;;;;;;;8.43;4.60;;;23.90;53.00;;;;;;5032547;28;20029;-70
2021/03/25 11:50:47;;;;;;;6.38;4.45;;;24.70;50.00;;;;;;5032614;28;20025;-72
2021/03/25 11:53:39;;;;;;;9.93;5.10;;;25.20;45.80;;;;;;5031267;28;20425;-70
2021/03/25 11:56:18;;;;;;;6.97;4.50;;;25.60;46.00;;;;;;5031886;28;20017;-72
2021/03/25 11:58:51;;;;;;;5.85;4.80;;;26.20;44.80;;;;;;5032316;28;20018;-71
2021/03/25 12:01:23;;;;;;;6.57;4.63;;;25.90;43.80;;;;;;5031808;28;20405;-72
2021/03/25 12:04:15;;;;;;;6.25;5.03;;;24.40;45.90;;;;;;5031365;28;20496;-70
2021/03/25 12:07:20;;;;;;;8.77;4.97;;;22.80;47.60;;;;;;5002031;28;20029;-73
2021/03/25 12:10:13;;;;;;;4.22;3.42;;;24.10;47.80;;;;;;5031166;28;20038;-71
2021/03/25 12:12:42;;;;;;;3.45;2.90;;;23.60;46.40;;;;;;5032011;28;20030;-72
2021/03/25 12:15:09;;;;;;;4.10;3.70;;;22.70;46.30;;;;;;5039644;28;20013;-71
2021/03/25 12:17:36;;;;;;;5.47;3.30;;;21.70;49.00;;;;;;5052099;28;20450;-70
2021/03/25 12:20:03;;;;;;;7.53;3.85;;;22.10;49.30;;;;;;5033721;28;20036;-70
2021/03/25 12:22:31;;;;;;;6.85;3.67;;;22.80;49.50;;;;;;5033446;28;20030;-72
2021/03/25 12:24:57;;;;;;;8.13;3.00;;;21.90;49.00;;;;;;4994590;28;20029;-70
2021/03/25 12:27:28;;;;;;;3.53;3.15;;;21.80;50.90;;;;;;5012289;28;20498;-71
2021/03/25 12:29:56;;;;;;;6.85;3.05;;;22.90;47.80;;;;;;5012996;28;20109;-70
2021/03/25 12:32:26;;;;;;;5.95;3.03;;;23.60;45.70;;;;;;5011800;28;20025;-70
2021/03/25 12:34:52;;;;;;;3.22;2.38;;;24.00;44.10;;;;;;5011693;28;20018;-71
2021/03/25 12:37:18;;;;;;;5.00;2.63;;;24.30;44.80;;;;;;4994658;28;20164;-70
2021/03/25 12:39:43;;;;;;;2.67;2.20;;;23.50;44.80;;;;;;5021895;28;20116;-72
2021/03/25 12:42:13;;;;;;;4.45;2.67;;;23.00;45.60;;;;;;5031760;28;20033;-71
2021/03/25 12:44:39;;;;;;;7.55;2.30;;;22.60;45.70;;;;;;5047342;28;20025;-71
2021/03/25 12:47:06;;;;;;;3.28;2.40;;;22.80;45.80;;;;;;5032245;28;20419;-70
2021/03/25 12:49:32;;;;;;;2.30;2.10;;;22.40;46.10;;;;;;5014646;28;20026;-72
2021/03/25 12:51:58;;;;;;;3.10;2.00;;;21.50;48.20;;;;;;5025254;28;20029;-71
2021/03/25 12:54:24;;;;;;;2.20;1.77;;;21.90;47.50;;;;;;5033793;28;20029;-69
2021/03/25 12:56:56;;;;;;;9.02;2.75;;;21.90;49.10;;;;;;5030992;28;20026;-69
2021/03/25 12:59:22;;;;;;;5.05;3.20;;;22.40;48.50;;;;;;5038673;28;20021;-70
2021/03/25 13:01:48;;;;;;;5.10;3.22;;;22.70;48.40;;;;;;5047243;28;20086;-70
2021/03/25 13:04:14;;;;;;;5.35;2.80;;;22.70;47.80;;;;;;5054242;28;20045;-71
2021/03/25 13:06:39;;;;;;;3.88;2.55;;;22.70;47.20;;;;;;5032350;28;20408;-69
2021/03/25 13:09:05;;;;;;;5.65;2.30;;;22.40;48.60;;;;;;5020346;28;20559;-70
2021/03/25 13:11:31;;;;;;;2.30;2.10;;;21.40;50.90;;;;;;5039193;28;20687;-69
2021/03/25 13:13:58;;;;;;;6.05;2.10;;;21.70;49.20;;;;;;5013352;28;20024;-69
2021/03/25 13:16:25;;;;;;;3.60;2.22;;;20.30;50.30;;;;;;5031427;28;20051;-69
2021/03/25 13:18:51;;;;;;;2.47;2.00;;;20.40;51.20;;;;;;5033741;28;20789;-70
2021/03/25 13:21:18;;;;;;;5.50;2.00;;;20.70;51.00;;;;;;5035609;28;20052;-71
2021/03/25 13:23:45;;;;;;;4.88;2.20;;;21.10;51.40;;;;;;5035290;28;20048;-70